sensor_id;sensor_type;location;lat;lon;timestamp;P1;durP1;ratioP1;P2;durP2;ratioP2
63370;SDS011;72561;48.336;14.472;2024-01-27T00:01:01;0.60;;;0.20;;
63370;SDS011;72561;48.336;14.472;2024-01-27T00:02:42;0.52;;;0.10;;
63370;SDS011;72561;48.336;14.472;2024-01-27T00:04:24;1.35;;;0.30;;
63370;SDS011;72561;48.336;14.472;2024-01-27T00:06:05;0.30;;;0.10;;
63370;SDS011;72561;48.336;14.472;2024-01-27T00:07:46;0.40;;;0.10;;
63370;SDS011;72561;48.336;14.472;2024-01-27T00:09:27;2.40;;;0.30;;
63370;SDS011;72561;48.336;14.472;2024-01-27T00:11:09;1.80;;;0.20;;
63370;SDS011;72561;48.336;14.472;2024-01-27T00:12:51;0.60;;;0.15;;
63370;SDS011;72561;48.336;14.472;2024-01-27T00:14:33;1.02;;;0.20;;
63370;SDS011;72561;48.336;14.472;2024-01-27T00:16:15;0.98;;;0.25;;
63370;SDS011;72561;48.336;14.472;2024-01-27T00:17:56;1.05;;;0.20;;
63370;SDS011;72561;48.336;14.472;2024-01-27T00:19:38;0.70;;;0.13;;
63370;SDS011;72561;48.336;14.472;2024-01-27T00:21:19;0.20;;;0.10;;
63370;SDS011;72561;48.336;14.472;2024-01-27T00:23:00;0.80;;;0.15;;
63370;SDS011;72561;48.336;14.472;2024-01-27T00:24:41;0.75;;;0.25;;
63370;SDS011;72561;48.336;14.472;2024-01-27T00:26:22;0.32;;;0.10;;
63370;SDS011;72561;48.336;14.472;2024-01-27T00:28:04;0.13;;;0.05;;
63370;SDS011;72561;48.336;14.472;2024-01-27T00:29:45;0.82;;;0.20;;
63370;SDS011;72561;48.336;14.472;2024-01-27T00:31:28;0.40;;;0.10;;
63370;SDS011;72561;48.336;14.472;2024-01-27T00:33:09;0.40;;;0.17;;
63370;SDS011;72561;48.336;14.472;2024-01-27T00:34:50;0.32;;;0.10;;
63370;SDS011;72561;48.336;14.472;2024-01-27T00:36:31;0.80;;;0.20;;
63370;SDS011;72561;48.336;14.472;2024-01-27T00:38:12;1.02;;;0.20;;
63370;SDS011;72561;48.336;14.472;2024-01-27T00:39:54;0.32;;;0.10;;
63370;SDS011;72561;48.336;14.472;2024-01-27T00:41:35;1.25;;;0.22;;
63370;SDS011;72561;48.336;14.472;2024-01-27T00:43:16;0.82;;;0.30;;
63370;SDS011;72561;48.336;14.472;2024-01-27T00:44:57;0.30;;;0.08;;
63370;SDS011;72561;48.336;14.472;2024-01-27T00:46:40;0.85;;;0.20;;
63370;SDS011;72561;48.336;14.472;2024-01-27T00:48:21;1.25;;;0.20;;
63370;SDS011;72561;48.336;14.472;2024-01-27T00:50:02;0.85;;;0.20;;
63370;SDS011;72561;48.336;14.472;2024-01-27T00:51:44;1.27;;;0.15;;
63370;SDS011;72561;48.336;14.472;2024-01-27T00:53:25;1.02;;;0.30;;
63370;SDS011;72561;48.336;14.472;2024-01-27T00:55:06;0.17;;;0.10;;
63370;SDS011;72561;48.336;14.472;2024-01-27T00:56:48;0.85;;;0.13;;
63370;SDS011;72561;48.336;14.472;2024-01-27T00:58:29;0.65;;;0.25;;
63370;SDS011;72561;48.336;14.472;2024-01-27T01:00:11;0.30;;;0.10;;
63370;SDS011;72561;48.336;14.472;2024-01-27T01:01:54;0.90;;;0.20;;
63370;SDS011;72561;48.336;14.472;2024-01-27T01:03:36;0.82;;;0.17;;
63370;SDS011;72561;48.336;14.472;2024-01-27T01:05:17;0.50;;;0.10;;
63370;SDS011;72561;48.336;14.472;2024-01-27T01:06:58;0.40;;;0.10;;
63370;SDS011;72561;48.336;14.472;2024-01-27T01:08:39;1.00;;;0.20;;
63370;SDS011;72561;48.336;14.472;2024-01-27T01:10:21;0.60;;;0.10;;
63370;SDS011;72561;48.336;14.472;2024-01-27T01:12:02;0.13;;;0.10;;
63370;SDS011;72561;48.336;14.472;2024-01-27T01:15:25;0.60;;;0.10;;
63370;SDS011;72561;48.336;14.472;2024-01-27T01:17:08;0.73;;;0.20;;
63370;SDS011;72561;48.336;14.472;2024-01-27T01:18:49;0.45;;;0.17;;
63370;SDS011;72561;48.336;14.472;2024-01-27T01:20:30;0.57;;;0.10;;
63370;SDS011;72561;48.336;14.472;2024-01-27T01:22:11;0.98;;;0.20;;
63370;SDS011;72561;48.336;14.472;2024-01-27T01:23:52;0.70;;;0.10;;
63370;SDS011;72561;48.336;14.472;2024-01-27T01:25:34;0.82;;;0.22;;
63370;SDS011;72561;48.336;14.472;2024-01-27T01:27:15;0.70;;;0.20;;
63370;SDS011;72561;48.336;14.472;2024-01-27T01:28:56;0.68;;;0.15;;
63370;SDS011;72561;48.336;14.472;2024-01-27T01:30:37;0.75;;;0.10;;
63370;SDS011;72561;48.336;14.472;2024-01-27T01:32:20;0.40;;;0.10;;
63370;SDS011;72561;48.336;14.472;2024-01-27T01:34:01;0.80;;;0.20;;
63370;SDS011;72561;48.336;14.472;2024-01-27T01:35:42;0.45;;;0.10;;
63370;SDS011;72561;48.336;14.472;2024-01-27T01:37:23;0.35;;;0.10;;
63370;SDS011;72561;48.336;14.472;2024-01-27T01:39:04;0.47;;;0.10;;
63370;SDS011;72561;48.336;14.472;2024-01-27T01:40:46;0.45;;;0.10;;
63370;SDS011;72561;48.336;14.472;2024-01-27T01:42:27;0.93;;;0.20;;
63370;SDS011;72561;48.336;14.472;2024-01-27T01:44:08;0.85;;;0.20;;
63370;SDS011;72561;48.336;14.472;2024-01-27T01:45:50;0.47;;;0.10;;
63370;SDS011;72561;48.336;14.472;2024-01-27T01:47:33;0.20;;;0.05;;
63370;SDS011;72561;48.336;14.472;2024-01-27T01:49:14;1.15;;;0.20;;
63370;SDS011;72561;48.336;14.472;2024-01-27T01:50:55;0.43;;;0.20;;
63370;SDS011;72561;48.336;14.472;2024-01-27T01:52:37;0.50;;;0.05;;
63370;SDS011;72561;48.336;14.472;2024-01-27T01:54:19;0.60;;;0.10;;
63370;SDS011;72561;48.336;14.472;2024-01-27T01:56:01;0.82;;;0.17;;
63370;SDS011;72561;48.336;14.472;2024-01-27T01:57:43;0.95;;;0.20;;
63370;SDS011;72561;48.336;14.472;2024-01-27T01:59:24;0.70;;;0.17;;
63370;SDS011;72561;48.336;14.472;2024-01-27T02:01:06;0.63;;;0.10;;
63370;SDS011;72561;48.336;14.472;2024-01-27T02:02:48;0.68;;;0.20;;
63370;SDS011;72561;48.336;14.472;2024-01-27T02:04:30;0.88;;;0.20;;
63370;SDS011;72561;48.336;14.472;2024-01-27T02:06:20;0.30;;;0.10;;
63370;SDS011;72561;48.336;14.472;2024-01-27T02:08:02;1.70;;;0.30;;
63370;SDS011;72561;48.336;14.472;2024-01-27T02:09:43;0.60;;;0.20;;
63370;SDS011;72561;48.336;14.472;2024-01-27T02:11:24;0.73;;;0.20;;
63370;SDS011;72561;48.336;14.472;2024-01-27T02:13:14;0.30;;;0.10;;
63370;SDS011;72561;48.336;14.472;2024-01-27T02:14:57;0.93;;;0.25;;
63370;SDS011;72561;48.336;14.472;2024-01-27T02:16:39;0.43;;;0.10;;
63370;SDS011;72561;48.336;14.472;2024-01-27T02:18:21;0.52;;;0.10;;
63370;SDS011;72561;48.336;14.472;2024-01-27T02:20:03;0.30;;;0.10;;
63370;SDS011;72561;48.336;14.472;2024-01-27T02:21:45;0.45;;;0.20;;
63370;SDS011;72561;48.336;14.472;2024-01-27T02:23:30;0.90;;;0.10;;
63370;SDS011;72561;48.336;14.472;2024-01-27T02:25:12;0.28;;;0.10;;
63370;SDS011;72561;48.336;14.472;2024-01-27T02:26:53;0.57;;;0.10;;
63370;SDS011;72561;48.336;14.472;2024-01-27T02:28:35;1.03;;;0.10;;
63370;SDS011;72561;48.336;14.472;2024-01-27T02:30:16;1.23;;;0.28;;
63370;SDS011;72561;48.336;14.472;2024-01-27T02:31:57;0.90;;;0.20;;
63370;SDS011;72561;48.336;14.472;2024-01-27T02:33:38;0.65;;;0.10;;
63370;SDS011;72561;48.336;14.472;2024-01-27T02:35:19;2.65;;;0.20;;
63370;SDS011;72561;48.336;14.472;2024-01-27T02:37:00;0.60;;;0.10;;
63370;SDS011;72561;48.336;14.472;2024-01-27T02:38:42;0.55;;;0.20;;
63370;SDS011;72561;48.336;14.472;2024-01-27T02:40:24;0.70;;;0.13;;
63370;SDS011;72561;48.336;14.472;2024-01-27T02:42:05;1.40;;;0.20;;
63370;SDS011;72561;48.336;14.472;2024-01-27T02:43:47;1.23;;;0.10;;
63370;SDS011;72561;48.336;14.472;2024-01-27T02:45:28;0.82;;;0.10;;
63370;SDS011;72561;48.336;14.472;2024-01-27T02:47:09;0.55;;;0.15;;
63370;SDS011;72561;48.336;14.472;2024-01-27T02:48:50;0.20;;;0.10;;
63370;SDS011;72561;48.336;14.472;2024-01-27T02:50:31;0.90;;;0.17;;
63370;SDS011;72561;48.336;14.472;2024-01-27T02:52:12;0.60;;;0.10;;
63370;SDS011;72561;48.336;14.472;2024-01-27T02:53:54;1.75;;;0.20;;
63370;SDS011;72561;48.336;14.472;2024-01-27T02:55:36;0.88;;;0.10;;
63370;SDS011;72561;48.336;14.472;2024-01-27T02:57:17;0.22;;;0.10;;
63370;SDS011;72561;48.336;14.472;2024-01-27T02:58:58;0.43;;;0.10;;
63370;SDS011;72561;48.336;14.472;2024-01-27T03:00:39;0.47;;;0.10;;
63370;SDS011;72561;48.336;14.472;2024-01-27T03:02:21;0.63;;;0.10;;
63370;SDS011;72561;48.336;14.472;2024-01-27T03:04:02;0.73;;;0.20;;
63370;SDS011;72561;48.336;14.472;2024-01-27T03:05:43;1.20;;;0.13;;
63370;SDS011;72561;48.336;14.472;2024-01-27T03:07:24;0.85;;;0.30;;
63370;SDS011;72561;48.336;14.472;2024-01-27T03:09:06;1.23;;;0.20;;
63370;SDS011;72561;48.336;14.472;2024-01-27T03:10:48;0.70;;;0.10;;
63370;SDS011;72561;48.336;14.472;2024-01-27T03:12:29;1.10;;;0.20;;
63370;SDS011;72561;48.336;14.472;2024-01-27T03:14:11;1.00;;;0.20;;
63370;SDS011;72561;48.336;14.472;2024-01-27T03:15:52;0.10;;;0.08;;
63370;SDS011;72561;48.336;14.472;2024-01-27T03:17:33;0.40;;;0.10;;
63370;SDS011;72561;48.336;14.472;2024-01-27T03:19:14;0.40;;;0.10;;
63370;SDS011;72561;48.336;14.472;2024-01-27T03:20:55;1.42;;;0.15;;
63370;SDS011;72561;48.336;14.472;2024-01-27T03:22:37;0.75;;;0.20;;
63370;SDS011;72561;48.336;14.472;2024-01-27T03:24:18;1.00;;;0.20;;
63370;SDS011;72561;48.336;14.472;2024-01-27T03:26:00;0.70;;;0.17;;
63370;SDS011;72561;48.336;14.472;2024-01-27T03:27:43;0.65;;;0.20;;
63370;SDS011;72561;48.336;14.472;2024-01-27T03:29:24;0.45;;;0.10;;
63370;SDS011;72561;48.336;14.472;2024-01-27T03:31:05;0.43;;;0.10;;
63370;SDS011;72561;48.336;14.472;2024-01-27T03:32:46;3.63;;;0.20;;
63370;SDS011;72561;48.336;14.472;2024-01-27T03:34:27;0.65;;;0.17;;
63370;SDS011;72561;48.336;14.472;2024-01-27T03:36:09;0.45;;;0.10;;
63370;SDS011;72561;48.336;14.472;2024-01-27T03:39:32;1.02;;;0.20;;
63370;SDS011;72561;48.336;14.472;2024-01-27T03:41:14;2.42;;;0.30;;
63370;SDS011;72561;48.336;14.472;2024-01-27T03:42:55;3.17;;;0.40;;
63370;SDS011;72561;48.336;14.472;2024-01-27T03:44:37;0.50;;;0.10;;
63370;SDS011;72561;48.336;14.472;2024-01-27T03:46:18;1.25;;;0.20;;
63370;SDS011;72561;48.336;14.472;2024-01-27T03:47:59;0.57;;;0.10;;
63370;SDS011;72561;48.336;14.472;2024-01-27T03:49:40;0.88;;;0.15;;
63370;SDS011;72561;48.336;14.472;2024-01-27T03:51:21;1.23;;;0.28;;
63370;SDS011;72561;48.336;14.472;2024-01-27T03:53:03;1.35;;;0.20;;
63370;SDS011;72561;48.336;14.472;2024-01-27T03:54:44;0.97;;;0.20;;
63370;SDS011;72561;48.336;14.472;2024-01-27T03:56:26;1.05;;;0.20;;
63370;SDS011;72561;48.336;14.472;2024-01-27T03:58:07;1.00;;;0.10;;
63370;SDS011;72561;48.336;14.472;2024-01-27T03:59:49;0.38;;;0.10;;
63370;SDS011;72561;48.336;14.472;2024-01-27T04:01:32;1.27;;;0.20;;
63370;SDS011;72561;48.336;14.472;2024-01-27T04:03:14;3.53;;;0.20;;
63370;SDS011;72561;48.336;14.472;2024-01-27T04:04:55;1.02;;;0.10;;
63370;SDS011;72561;48.336;14.472;2024-01-27T04:06:36;0.93;;;0.20;;
63370;SDS011;72561;48.336;14.472;2024-01-27T04:08:18;0.15;;;0.10;;
63370;SDS011;72561;48.336;14.472;2024-01-27T04:10:01;1.52;;;0.30;;
63370;SDS011;72561;48.336;14.472;2024-01-27T04:11:45;2.33;;;0.30;;
63370;SDS011;72561;48.336;14.472;2024-01-27T04:13:28;0.80;;;0.20;;
63370;SDS011;72561;48.336;14.472;2024-01-27T04:15:11;1.42;;;0.20;;
63370;SDS011;72561;48.336;14.472;2024-01-27T04:16:53;1.75;;;0.13;;
63370;SDS011;72561;48.336;14.472;2024-01-27T04:18:34;1.17;;;0.25;;
63370;SDS011;72561;48.336;14.472;2024-01-27T04:20:16;0.30;;;0.10;;
63370;SDS011;72561;48.336;14.472;2024-01-27T04:21:57;0.68;;;0.20;;
63370;SDS011;72561;48.336;14.472;2024-01-27T04:23:38;0.65;;;0.10;;
63370;SDS011;72561;48.336;14.472;2024-01-27T04:25:19;0.77;;;0.20;;
63370;SDS011;72561;48.336;14.472;2024-01-27T04:27:02;0.75;;;0.20;;
63370;SDS011;72561;48.336;14.472;2024-01-27T04:28:44;0.82;;;0.13;;
63370;SDS011;72561;48.336;14.472;2024-01-27T04:30:25;1.13;;;0.20;;
63370;SDS011;72561;48.336;14.472;2024-01-27T04:32:06;1.30;;;0.20;;
63370;SDS011;72561;48.336;14.472;2024-01-27T04:33:47;0.65;;;0.17;;
63370;SDS011;72561;48.336;14.472;2024-01-27T04:35:28;1.42;;;0.30;;
63370;SDS011;72561;48.336;14.472;2024-01-27T04:37:10;0.75;;;0.15;;
63370;SDS011;72561;48.336;14.472;2024-01-27T04:38:51;0.98;;;0.10;;
63370;SDS011;72561;48.336;14.472;2024-01-27T04:40:32;0.43;;;0.10;;
63370;SDS011;72561;48.336;14.472;2024-01-27T04:42:14;1.15;;;0.30;;
63370;SDS011;72561;48.336;14.472;2024-01-27T04:43:56;1.25;;;0.20;;
63370;SDS011;72561;48.336;14.472;2024-01-27T04:45:37;0.70;;;0.20;;
63370;SDS011;72561;48.336;14.472;2024-01-27T04:47:18;0.52;;;0.10;;
63370;SDS011;72561;48.336;14.472;2024-01-27T04:48:59;1.90;;;0.30;;
63370;SDS011;72561;48.336;14.472;2024-01-27T04:50:40;1.45;;;0.20;;
63370;SDS011;72561;48.336;14.472;2024-01-27T04:52:22;0.60;;;0.10;;
63370;SDS011;72561;48.336;14.472;2024-01-27T04:54:03;1.10;;;0.30;;
63370;SDS011;72561;48.336;14.472;2024-01-27T04:55:44;1.17;;;0.20;;
63370;SDS011;72561;48.336;14.472;2024-01-27T04:57:27;2.55;;;0.20;;
63370;SDS011;72561;48.336;14.472;2024-01-27T04:59:08;0.75;;;0.20;;
63370;SDS011;72561;48.336;14.472;2024-01-27T05:00:49;0.82;;;0.13;;
63370;SDS011;72561;48.336;14.472;2024-01-27T05:02:30;0.75;;;0.20;;
63370;SDS011;72561;48.336;14.472;2024-01-27T05:04:11;2.28;;;0.20;;
63370;SDS011;72561;48.336;14.472;2024-01-27T05:05:52;0.95;;;0.20;;
63370;SDS011;72561;48.336;14.472;2024-01-27T05:07:34;0.95;;;0.22;;
63370;SDS011;72561;48.336;14.472;2024-01-27T05:09:15;0.82;;;0.20;;
63370;SDS011;72561;48.336;14.472;2024-01-27T05:10:56;0.77;;;0.17;;
63370;SDS011;72561;48.336;14.472;2024-01-27T05:12:39;1.33;;;0.22;;
63370;SDS011;72561;48.336;14.472;2024-01-27T05:14:20;0.98;;;0.20;;
63370;SDS011;72561;48.336;14.472;2024-01-27T05:16:01;0.85;;;0.20;;
63370;SDS011;72561;48.336;14.472;2024-01-27T05:17:42;0.82;;;0.20;;
63370;SDS011;72561;48.336;14.472;2024-01-27T05:19:23;1.40;;;0.28;;
63370;SDS011;72561;48.336;14.472;2024-01-27T05:21:05;1.38;;;0.32;;
63370;SDS011;72561;48.336;14.472;2024-01-27T05:22:46;1.35;;;0.20;;
63370;SDS011;72561;48.336;14.472;2024-01-27T05:24:27;1.45;;;0.35;;
63370;SDS011;72561;48.336;14.472;2024-01-27T05:26:08;1.17;;;0.20;;
63370;SDS011;72561;48.336;14.472;2024-01-27T05:27:51;0.85;;;0.20;;
63370;SDS011;72561;48.336;14.472;2024-01-27T05:29:32;1.48;;;0.10;;
63370;SDS011;72561;48.336;14.472;2024-01-27T05:31:13;1.02;;;0.20;;
63370;SDS011;72561;48.336;14.472;2024-01-27T05:32:54;0.95;;;0.25;;
63370;SDS011;72561;48.336;14.472;2024-01-27T05:34:35;1.13;;;0.30;;
63370;SDS011;72561;48.336;14.472;2024-01-27T05:36:17;1.38;;;0.30;;
63370;SDS011;72561;48.336;14.472;2024-01-27T05:37:58;0.55;;;0.13;;
63370;SDS011;72561;48.336;14.472;2024-01-27T05:40:49;0.80;;;0.15;;
63370;SDS011;72561;48.336;14.472;2024-01-27T05:42:30;0.90;;;0.15;;
63370;SDS011;72561;48.336;14.472;2024-01-27T05:44:12;1.25;;;0.20;;
63370;SDS011;72561;48.336;14.472;2024-01-27T05:45:53;2.58;;;0.30;;
63370;SDS011;72561;48.336;14.472;2024-01-27T05:47:34;1.27;;;0.27;;
63370;SDS011;72561;48.336;14.472;2024-01-27T05:49:15;1.50;;;0.25;;
63370;SDS011;72561;48.336;14.472;2024-01-27T05:50:57;0.85;;;0.20;;
63370;SDS011;72561;48.336;14.472;2024-01-27T05:52:39;0.98;;;0.20;;
63370;SDS011;72561;48.336;14.472;2024-01-27T05:54:21;2.22;;;0.20;;
63370;SDS011;72561;48.336;14.472;2024-01-27T05:56:03;0.80;;;0.20;;
63370;SDS011;72561;48.336;14.472;2024-01-27T05:57:45;0.90;;;0.22;;
63370;SDS011;72561;48.336;14.472;2024-01-27T06:00:11;1.55;;;0.22;;
63370;SDS011;72561;48.336;14.472;2024-01-27T06:01:53;3.88;;;0.32;;
63370;SDS011;72561;48.336;14.472;2024-01-27T06:03:35;0.88;;;0.20;;
63370;SDS011;72561;48.336;14.472;2024-01-27T06:05:17;0.47;;;0.10;;
63370;SDS011;72561;48.336;14.472;2024-01-27T06:08:41;1.40;;;0.30;;
63370;SDS011;72561;48.336;14.472;2024-01-27T06:10:24;1.60;;;0.30;;
63370;SDS011;72561;48.336;14.472;2024-01-27T06:12:05;0.52;;;0.13;;
63370;SDS011;72561;48.336;14.472;2024-01-27T06:13:47;1.80;;;0.40;;
63370;SDS011;72561;48.336;14.472;2024-01-27T06:15:29;0.90;;;0.28;;
63370;SDS011;72561;48.336;14.472;2024-01-27T06:17:11;1.17;;;0.20;;
63370;SDS011;72561;48.336;14.472;2024-01-27T06:18:53;1.35;;;0.20;;
63370;SDS011;72561;48.336;14.472;2024-01-27T06:20:34;0.55;;;0.20;;
63370;SDS011;72561;48.336;14.472;2024-01-27T06:22:16;2.15;;;0.45;;
63370;SDS011;72561;48.336;14.472;2024-01-27T06:23:57;1.30;;;0.30;;
63370;SDS011;72561;48.336;14.472;2024-01-27T06:25:38;3.42;;;0.40;;
63370;SDS011;72561;48.336;14.472;2024-01-27T06:27:20;2.17;;;0.30;;
63370;SDS011;72561;48.336;14.472;2024-01-27T06:29:01;1.83;;;0.40;;
63370;SDS011;72561;48.336;14.472;2024-01-27T06:30:44;0.98;;;0.20;;
63370;SDS011;72561;48.336;14.472;2024-01-27T06:32:25;1.15;;;0.30;;
63370;SDS011;72561;48.336;14.472;2024-01-27T06:34:06;2.10;;;0.30;;
63370;SDS011;72561;48.336;14.472;2024-01-27T06:35:48;1.45;;;0.35;;
63370;SDS011;72561;48.336;14.472;2024-01-27T06:37:29;1.17;;;0.30;;
63370;SDS011;72561;48.336;14.472;2024-01-27T06:39:11;1.45;;;0.30;;
63370;SDS011;72561;48.336;14.472;2024-01-27T06:40:52;1.38;;;0.38;;
63370;SDS011;72561;48.336;14.472;2024-01-27T06:42:33;0.55;;;0.17;;
63370;SDS011;72561;48.336;14.472;2024-01-27T06:44:14;1.10;;;0.25;;
63370;SDS011;72561;48.336;14.472;2024-01-27T06:45:57;1.98;;;0.35;;
63370;SDS011;72561;48.336;14.472;2024-01-27T06:47:38;4.28;;;0.38;;
63370;SDS011;72561;48.336;14.472;2024-01-27T06:49:19;1.10;;;0.20;;
63370;SDS011;72561;48.336;14.472;2024-01-27T06:51:00;2.38;;;0.60;;
63370;SDS011;72561;48.336;14.472;2024-01-27T06:52:47;2.88;;;0.65;;
63370;SDS011;72561;48.336;14.472;2024-01-27T06:54:28;1.88;;;0.50;;
63370;SDS011;72561;48.336;14.472;2024-01-27T06:56:10;3.00;;;0.70;;
63370;SDS011;72561;48.336;14.472;2024-01-27T06:57:52;1.80;;;0.50;;
63370;SDS011;72561;48.336;14.472;2024-01-27T06:59:34;3.22;;;0.50;;
63370;SDS011;72561;48.336;14.472;2024-01-27T07:01:17;1.75;;;0.55;;
63370;SDS011;72561;48.336;14.472;2024-01-27T07:02:59;1.67;;;0.55;;
63370;SDS011;72561;48.336;14.472;2024-01-27T07:04:41;1.92;;;0.50;;
63370;SDS011;72561;48.336;14.472;2024-01-27T07:06:22;2.47;;;0.57;;
63370;SDS011;72561;48.336;14.472;2024-01-27T07:08:05;2.15;;;0.68;;
63370;SDS011;72561;48.336;14.472;2024-01-27T07:09:47;4.63;;;0.63;;
63370;SDS011;72561;48.336;14.472;2024-01-27T07:11:28;3.13;;;0.80;;
63370;SDS011;72561;48.336;14.472;2024-01-27T07:13:09;4.00;;;0.60;;
63370;SDS011;72561;48.336;14.472;2024-01-27T07:14:52;3.47;;;0.80;;
63370;SDS011;72561;48.336;14.472;2024-01-27T07:16:34;2.38;;;0.70;;
63370;SDS011;72561;48.336;14.472;2024-01-27T07:18:16;2.70;;;0.70;;
63370;SDS011;72561;48.336;14.472;2024-01-27T07:19:57;2.58;;;1.00;;
63370;SDS011;72561;48.336;14.472;2024-01-27T07:21:38;5.15;;;0.90;;
63370;SDS011;72561;48.336;14.472;2024-01-27T07:23:20;3.60;;;0.70;;
63370;SDS011;72561;48.336;14.472;2024-01-27T07:25:01;6.20;;;0.93;;
63370;SDS011;72561;48.336;14.472;2024-01-27T07:26:43;2.15;;;0.73;;
63370;SDS011;72561;48.336;14.472;2024-01-27T07:28:24;2.97;;;0.57;;
63370;SDS011;72561;48.336;14.472;2024-01-27T07:30:06;3.42;;;0.90;;
63370;SDS011;72561;48.336;14.472;2024-01-27T07:31:50;3.15;;;0.90;;
63370;SDS011;72561;48.336;14.472;2024-01-27T07:33:31;2.92;;;0.70;;
63370;SDS011;72561;48.336;14.472;2024-01-27T07:35:12;2.95;;;0.95;;
63370;SDS011;72561;48.336;14.472;2024-01-27T07:36:54;4.05;;;0.93;;
63370;SDS011;72561;48.336;14.472;2024-01-27T07:38:35;3.33;;;0.73;;
63370;SDS011;72561;48.336;14.472;2024-01-27T07:40:16;3.08;;;0.90;;
63370;SDS011;72561;48.336;14.472;2024-01-27T07:41:58;2.97;;;0.75;;
63370;SDS011;72561;48.336;14.472;2024-01-27T07:43:39;2.13;;;0.70;;
63370;SDS011;72561;48.336;14.472;2024-01-27T07:46:30;2.47;;;0.70;;
63370;SDS011;72561;48.336;14.472;2024-01-27T07:48:20;2.67;;;0.80;;
63370;SDS011;72561;48.336;14.472;2024-01-27T07:50:02;2.65;;;0.80;;
63370;SDS011;72561;48.336;14.472;2024-01-27T07:51:44;3.20;;;0.90;;
63370;SDS011;72561;48.336;14.472;2024-01-27T07:53:31;5.43;;;0.88;;
63370;SDS011;72561;48.336;14.472;2024-01-27T07:56:54;2.38;;;0.70;;
63370;SDS011;72561;48.336;14.472;2024-01-27T07:58:35;3.05;;;0.80;;
63370;SDS011;72561;48.336;14.472;2024-01-27T08:00:17;3.80;;;1.08;;
63370;SDS011;72561;48.336;14.472;2024-01-27T08:02:00;3.53;;;1.25;;
63370;SDS011;72561;48.336;14.472;2024-01-27T08:03:42;2.50;;;0.80;;
63370;SDS011;72561;48.336;14.472;2024-01-27T08:05:23;4.93;;;1.27;;
63370;SDS011;72561;48.336;14.472;2024-01-27T08:07:04;3.60;;;0.90;;
63370;SDS011;72561;48.336;14.472;2024-01-27T08:08:46;3.08;;;0.98;;
63370;SDS011;72561;48.336;14.472;2024-01-27T08:10:27;4.63;;;1.55;;
63370;SDS011;72561;48.336;14.472;2024-01-27T08:12:09;5.00;;;1.00;;
63370;SDS011;72561;48.336;14.472;2024-01-27T08:13:50;3.25;;;1.00;;
63370;SDS011;72561;48.336;14.472;2024-01-27T08:15:31;4.93;;;1.35;;
63370;SDS011;72561;48.336;14.472;2024-01-27T08:17:14;4.30;;;1.17;;
63370;SDS011;72561;48.336;14.472;2024-01-27T08:18:55;4.57;;;1.38;;
63370;SDS011;72561;48.336;14.472;2024-01-27T08:20:36;4.05;;;1.20;;
63370;SDS011;72561;48.336;14.472;2024-01-27T08:22:17;3.60;;;1.38;;
63370;SDS011;72561;48.336;14.472;2024-01-27T08:23:58;5.85;;;1.63;;
63370;SDS011;72561;48.336;14.472;2024-01-27T08:25:40;5.22;;;1.42;;
63370;SDS011;72561;48.336;14.472;2024-01-27T08:27:21;3.60;;;1.33;;
63370;SDS011;72561;48.336;14.472;2024-01-27T08:29:02;7.43;;;2.10;;
63370;SDS011;72561;48.336;14.472;2024-01-27T08:30:43;8.00;;;1.90;;
63370;SDS011;72561;48.336;14.472;2024-01-27T08:32:26;4.50;;;1.58;;
63370;SDS011;72561;48.336;14.472;2024-01-27T08:34:07;4.82;;;1.50;;
63370;SDS011;72561;48.336;14.472;2024-01-27T08:35:48;5.07;;;1.73;;
63370;SDS011;72561;48.336;14.472;2024-01-27T08:37:29;5.90;;;1.80;;
63370;SDS011;72561;48.336;14.472;2024-01-27T08:39:10;6.15;;;1.73;;
63370;SDS011;72561;48.336;14.472;2024-01-27T08:40:52;5.05;;;1.83;;
63370;SDS011;72561;48.336;14.472;2024-01-27T08:42:33;3.70;;;1.30;;
63370;SDS011;72561;48.336;14.472;2024-01-27T08:44:14;4.97;;;1.75;;
63370;SDS011;72561;48.336;14.472;2024-01-27T08:45:55;3.33;;;1.20;;
63370;SDS011;72561;48.336;14.472;2024-01-27T08:47:38;7.45;;;2.00;;
63370;SDS011;72561;48.336;14.472;2024-01-27T08:49:19;6.07;;;1.42;;
63370;SDS011;72561;48.336;14.472;2024-01-27T08:51:00;6.60;;;1.73;;
63370;SDS011;72561;48.336;14.472;2024-01-27T08:52:41;6.70;;;1.52;;
63370;SDS011;72561;48.336;14.472;2024-01-27T08:54:22;7.05;;;1.73;;
63370;SDS011;72561;48.336;14.472;2024-01-27T08:56:04;5.03;;;1.43;;
63370;SDS011;72561;48.336;14.472;2024-01-27T08:57:46;5.18;;;1.30;;
63370;SDS011;72561;48.336;14.472;2024-01-27T08:59:27;5.15;;;1.60;;
63370;SDS011;72561;48.336;14.472;2024-01-27T09:01:08;5.43;;;1.70;;
63370;SDS011;72561;48.336;14.472;2024-01-27T09:02:51;6.95;;;1.70;;
63370;SDS011;72561;48.336;14.472;2024-01-27T09:04:33;4.00;;;1.38;;
63370;SDS011;72561;48.336;14.472;2024-01-27T09:06:14;4.15;;;1.73;;
63370;SDS011;72561;48.336;14.472;2024-01-27T09:07:55;4.45;;;1.30;;
63370;SDS011;72561;48.336;14.472;2024-01-27T09:09:36;4.80;;;1.80;;
63370;SDS011;72561;48.336;14.472;2024-01-27T09:11:18;4.70;;;1.80;;
63370;SDS011;72561;48.336;14.472;2024-01-27T09:12:59;3.80;;;1.42;;
63370;SDS011;72561;48.336;14.472;2024-01-27T09:14:40;5.32;;;2.03;;
63370;SDS011;72561;48.336;14.472;2024-01-27T09:18:55;4.88;;;1.60;;
63370;SDS011;72561;48.336;14.472;2024-01-27T09:20:36;5.30;;;1.85;;
63370;SDS011;72561;48.336;14.472;2024-01-27T09:22:17;4.38;;;1.70;;
63370;SDS011;72561;48.336;14.472;2024-01-27T09:23:58;4.65;;;1.70;;
63370;SDS011;72561;48.336;14.472;2024-01-27T09:25:39;5.22;;;1.85;;
63370;SDS011;72561;48.336;14.472;2024-01-27T09:27:20;4.25;;;1.83;;
63370;SDS011;72561;48.336;14.472;2024-01-27T09:29:02;4.22;;;1.50;;
63370;SDS011;72561;48.336;14.472;2024-01-27T09:30:44;5.18;;;1.65;;
63370;SDS011;72561;48.336;14.472;2024-01-27T09:34:07;6.60;;;2.70;;
63370;SDS011;72561;48.336;14.472;2024-01-27T09:35:48;7.53;;;3.20;;
63370;SDS011;72561;48.336;14.472;2024-01-27T09:37:30;7.63;;;2.65;;
63370;SDS011;72561;48.336;14.472;2024-01-27T09:39:11;4.93;;;2.22;;
63370;SDS011;72561;48.336;14.472;2024-01-27T09:40:52;6.38;;;2.55;;
63370;SDS011;72561;48.336;14.472;2024-01-27T09:42:34;4.85;;;2.17;;
63370;SDS011;72561;48.336;14.472;2024-01-27T09:44:18;7.00;;;2.13;;
63370;SDS011;72561;48.336;14.472;2024-01-27T09:45:59;5.35;;;2.30;;
63370;SDS011;72561;48.336;14.472;2024-01-27T09:47:40;4.85;;;1.85;;
63370;SDS011;72561;48.336;14.472;2024-01-27T09:49:25;6.57;;;2.40;;
63370;SDS011;72561;48.336;14.472;2024-01-27T09:51:09;8.52;;;2.60;;
63370;SDS011;72561;48.336;14.472;2024-01-27T09:52:51;5.15;;;1.98;;
63370;SDS011;72561;48.336;14.472;2024-01-27T09:54:33;5.70;;;2.00;;
63370;SDS011;72561;48.336;14.472;2024-01-27T09:56:18;7.03;;;2.38;;
63370;SDS011;72561;48.336;14.472;2024-01-27T09:58:00;6.57;;;2.90;;
63370;SDS011;72561;48.336;14.472;2024-01-27T09:59:41;6.10;;;2.33;;
63370;SDS011;72561;48.336;14.472;2024-01-27T10:01:24;8.98;;;2.72;;
63370;SDS011;72561;48.336;14.472;2024-01-27T10:03:07;5.47;;;2.33;;
63370;SDS011;72561;48.336;14.472;2024-01-27T10:04:50;5.78;;;2.10;;
63370;SDS011;72561;48.336;14.472;2024-01-27T10:06:33;5.32;;;1.95;;
63370;SDS011;72561;48.336;14.472;2024-01-27T10:08:14;5.22;;;1.88;;
63370;SDS011;72561;48.336;14.472;2024-01-27T10:09:56;6.63;;;1.90;;
63370;SDS011;72561;48.336;14.472;2024-01-27T10:11:37;5.85;;;1.98;;
63370;SDS011;72561;48.336;14.472;2024-01-27T10:13:25;7.10;;;2.33;;
63370;SDS011;72561;48.336;14.472;2024-01-27T10:15:06;5.40;;;2.22;;
63370;SDS011;72561;48.336;14.472;2024-01-27T10:16:58;6.72;;;2.13;;